Time;durP1;ratioP1;P1;durP2;ratioP2;P2;SDS_P1;SDS_P2;PMS_P1;PMS_P2;Temp;Humidity;BMP_temperature;BMP_pressure;BME280_temperature;BME280_humidity;BME280_pressure;Samples;Min_cycle;Max_cycle;Signal;HPM_P1;HPM_P2
2023/05/07 00:00:07;;;;;;;30.55;18.90;;;;;;;;;;6342485;27;20530;-76
2023/05/07 00:03:07;;;;;;;28.45;15.63;;;;;;;;;;6331878;28;20020;-77
2023/05/07 00:06:08;;;;;;;29.10;14.73;;;;;;;;;;6332583;28;20023;-76
2023/05/07 00:09:08;;;;;;;32.17;15.90;;;;;;;;;;6319022;28;20386;-76
2023/05/07 00:12:08;;;;;;;27.67;15.87;;;;;;;;;;6322467;28;20020;-77
2023/05/07 00:15:09;;;;;;;29.63;15.50;;;;;;;;;;6325825;28;20018;-76
2023/05/07 00:18:09;;;;;;;23.83;15.30;;;;;;;;;;6324647;28;20018;-77
2023/05/07 00:21:09;;;;;;;29.53;16.07;;;;;;;;;;6341686;28;20034;-74
2023/05/07 00:24:09;;;;;;;29.77;15.83;;;;;;;;;;6326827;28;20016;-75
2023/05/07 00:27:09;;;;;;;24.87;13.43;;;;;;;;;;6337296;28;20051;-75
2023/05/07 00:30:10;;;;;;;26.38;13.52;;;;;;;;;;6341070;27;20026;-74
2023/05/07 00:33:10;;;;;;;25.00;14.33;;;;;;;;;;6328471;28;20076;-74
2023/05/07 00:36:10;;;;;;;29.73;15.20;;;;;;;;;;6330721;28;20012;-74
2023/05/07 00:39:11;;;;;;;26.62;14.30;;;;;;;;;;6320655;28;20023;-74
2023/05/07 00:42:11;;;;;;;25.73;14.73;;;;;;;;;;6323048;28;20126;-74
2023/05/07 00:45:11;;;;;;;26.87;14.60;;;;;;;;;;6325396;28;20355;-74
2023/05/07 00:48:12;;;;;;;21.03;13.50;;;;;;;;;;6320298;28;20068;-74
2023/05/07 00:51:12;;;;;;;26.43;13.30;;;;;;;;;;6308626;28;20170;-76
2023/05/07 00:54:13;;;;;;;26.07;14.00;;;;;;;;;;6330371;28;20556;-78
2023/05/07 00:57:13;;;;;;;28.27;15.57;;;;;;;;;;6323335;28;20008;-77
2023/05/07 01:00:13;;;;;;;25.73;13.63;;;;;;;;;;6341694;28;20020;-78
2023/05/07 01:03:13;;;;;;;24.53;13.63;;;;;;;;;;6326073;28;20064;-78
2023/05/07 01:06:16;;;;;;;22.33;13.33;;;;;;;;;;6333082;28;20023;-78
2023/05/07 01:09:17;;;;;;;25.52;13.10;;;;;;;;;;6337003;28;20039;-78
2023/05/07 01:12:17;;;;;;;23.77;12.63;;;;;;;;;;6319995;28;20135;-78
2023/05/07 01:15:17;;;;;;;22.70;13.07;;;;;;;;;;6336999;28;20060;-78
2023/05/07 01:18:18;;;;;;;25.20;12.65;;;;;;;;;;6336658;28;20077;-79
2023/05/07 01:21:24;;;;;;;20.92;12.15;;;;;;;;;;6327752;28;20020;-79
2023/05/07 01:24:26;;;;;;;24.48;12.50;;;;;;;;;;6331150;28;20043;-79
2023/05/07 01:27:26;;;;;;;21.45;12.77;;;;;;;;;;6313995;28;20096;-79
2023/05/07 01:30:27;;;;;;;20.10;13.07;;;;;;;;;;6321454;28;20036;-79
2023/05/07 01:33:29;;;;;;;24.43;14.77;;;;;;;;;;6337950;28;20028;-79
2023/05/07 01:36:30;;;;;;;20.90;12.57;;;;;;;;;;6326664;28;20092;-79
2023/05/07 01:39:30;;;;;;;23.53;12.93;;;;;;;;;;6319235;28;20016;-80
2023/05/07 01:42:31;;;;;;;26.33;14.37;;;;;;;;;;6331222;28;20797;-78
2023/05/07 01:45:32;;;;;;;18.47;12.27;;;;;;;;;;6332503;28;20028;-78
2023/05/07 01:48:32;;;;;;;21.97;12.33;;;;;;;;;;6320906;28;20102;-80
2023/05/07 01:51:33;;;;;;;26.43;14.13;;;;;;;;;;6312733;28;20534;-80
2023/05/07 01:54:33;;;;;;;20.47;10.70;;;;;;;;;;6303968;28;20023;-79
2023/05/07 01:57:34;;;;;;;21.13;11.17;;;;;;;;;;6295247;28;20092;-80
2023/05/07 02:00:34;;;;;;;17.80;10.23;;;;;;;;;;6317223;28;20470;-75
2023/05/07 02:03:34;;;;;;;20.13;11.73;;;;;;;;;;6299260;28;20020;-75
2023/05/07 02:06:34;;;;;;;20.90;11.98;;;;;;;;;;6296994;28;20012;-75
2023/05/07 02:09:35;;;;;;;17.53;10.80;;;;;;;;;;6315610;28;20032;-75
2023/05/07 02:12:35;;;;;;;21.17;11.20;;;;;;;;;;6297729;28;20099;-75
2023/05/07 02:15:35;;;;;;;15.02;10.27;;;;;;;;;;6316634;28;20050;-75
2023/05/07 02:18:35;;;;;;;24.77;12.17;;;;;;;;;;6303703;28;20052;-75
2023/05/07 02:21:36;;;;;;;20.40;10.60;;;;;;;;;;6302685;28;20794;-75
2023/05/07 02:24:36;;;;;;;19.27;10.47;;;;;;;;;;6309855;28;20149;-75
2023/05/07 02:27:36;;;;;;;18.02;10.48;;;;;;;;;;6282025;28;20098;-75
2023/05/07 02:30:36;;;;;;;13.63;8.37;;;;;;;;;;6292871;28;20029;-75
2023/05/07 02:33:36;;;;;;;9.67;6.33;;;;;;;;;;6304923;28;20039;-75
2023/05/07 02:36:37;;;;;;;12.05;7.18;;;;;;;;;;6315267;28;20088;-75
2023/05/07 02:39:37;;;;;;;10.60;6.43;;;;;;;;;;6302859;28;20017;-74
2023/05/07 02:42:37;;;;;;;9.90;6.37;;;;;;;;;;6300475;28;20031;-75
2023/05/07 02:45:37;;;;;;;13.50;6.80;;;;;;;;;;6301498;28;20016;-75
2023/05/07 02:48:37;;;;;;;12.05;5.95;;;;;;;;;;6311403;28;20032;-75
2023/05/07 02:51:38;;;;;;;10.43;6.57;;;;;;;;;;6298052;28;20013;-75
2023/05/07 02:54:38;;;;;;;10.20;6.07;;;;;;;;;;6310685;28;20009;-75
2023/05/07 02:57:38;;;;;;;8.40;5.57;;;;;;;;;;6290341;28;20004;-75
2023/05/07 03:00:38;;;;;;;13.27;7.78;;;;;;;;;;6314205;28;20469;-75
2023/05/07 03:03:39;;;;;;;13.73;7.10;;;;;;;;;;6312849;28;20065;-75
2023/05/07 03:06:39;;;;;;;15.70;7.50;;;;;;;;;;6310160;28;20096;-75
2023/05/07 03:09:39;;;;;;;11.27;7.10;;;;;;;;;;6302475;28;20021;-79
2023/05/07 03:12:40;;;;;;;13.33;6.90;;;;;;;;;;6309225;28;20017;-79
2023/05/07 03:15:40;;;;;;;13.53;6.07;;;;;;;;;;6315311;28;20574;-80
2023/05/07 03:18:40;;;;;;;9.27;5.40;;;;;;;;;;6303900;28;20032;-79
2023/05/07 03:21:41;;;;;;;11.23;5.43;;;;;;;;;;6308878;28;20027;-79
2023/05/07 03:24:41;;;;;;;11.67;5.30;;;;;;;;;;6304421;28;20016;-80
2023/05/07 03:27:44;;;;;;;7.73;5.33;;;;;;;;;;6301190;28;20024;-79
2023/05/07 03:30:44;;;;;;;8.75;5.88;;;;;;;;;;6309896;28;20102;-80
2023/05/07 03:33:54;;;;;;;8.82;5.05;;;;;;;;;;6297107;28;20023;-79
2023/05/07 03:36:54;;;;;;;8.88;4.97;;;;;;;;;;6299704;28;20021;-79
2023/05/07 03:39:54;;;;;;;9.27;5.00;;;;;;;;;;6307924;28;20032;-79
2023/05/07 03:42:55;;;;;;;7.77;4.53;;;;;;;;;;6299547;28;20471;-79
2023/05/07 03:45:55;;;;;;;10.77;4.80;;;;;;;;;;6295455;28;20031;-78
2023/05/07 03:48:57;;;;;;;8.50;4.40;;;;;;;;;;6330299;28;20075;-79
2023/05/07 03:51:57;;;;;;;8.73;5.03;;;;;;;;;;6305606;28;20505;-79
2023/05/07 03:54:58;;;;;;;9.10;5.17;;;;;;;;;;6336617;28;20019;-78
2023/05/07 03:57:58;;;;;;;8.80;4.95;;;;;;;;;;6330047;28;20442;-78
2023/05/07 04:01:00;;;;;;;7.87;4.57;;;;;;;;;;6330056;28;20027;-78
2023/05/07 04:04:01;;;;;;;;;;;;;;;;;;6318242;27;20023;-79
2023/05/07 04:07:01;;;;;;;6.95;4.50;;;;;;;;;;6325989;28;19943;-79
2023/05/07 04:10:02;;;;;;;7.87;4.47;;;;;;;;;;6333107;27;20028;-78
2023/05/07 04:13:02;;;;;;;4.93;3.40;;;;;;;;;;6325539;28;20020;-79
2023/05/07 04:16:03;;;;;;;6.20;4.47;;;;;;;;;;6319625;28;20363;-79
2023/05/07 04:19:04;;;;;;;6.50;4.28;;;;;;;;;;6320603;28;20027;-79
2023/05/07 04:22:05;;;;;;;5.77;3.50;;;;;;;;;;6307016;28;20021;-75
2023/05/07 04:25:06;;;;;;;5.55;3.50;;;;;;;;;;6332384;28;20102;-75
2023/05/07 04:28:06;;;;;;;7.07;4.10;;;;;;;;;;6307360;28;20428;-75
2023/05/07 04:31:06;;;;;;;6.63;4.07;;;;;;;;;;6325996;28;20024;-75
2023/05/07 04:34:07;;;;;;;4.35;3.13;;;;;;;;;;6321806;28;20077;-74
2023/05/07 04:37:07;;;;;;;6.93;5.10;;;;;;;;;;6335817;28;20594;-75
2023/05/07 04:40:07;;;;;;;4.32;2.65;;;;;;;;;;6322573;28;20439;-75
2023/05/07 04:43:08;;;;;;;6.83;3.30;;;;;;;;;;6337251;28;20028;-75
2023/05/07 04:46:09;;;;;;;4.97;2.88;;;;;;;;;;6322400;28;20020;-75
2023/05/07 04:49:10;;;;;;;5.77;2.47;;;;;;;;;;6320359;28;20041;-75
2023/05/07 04:52:10;;;;;;;4.15;2.63;;;;;;;;;;6298404;28;20025;-75
2023/05/07 04:55:10;;;;;;;4.97;2.80;;;;;;;;;;6297669;28;20092;-75
2023/05/07 04:58:11;;;;;;;4.97;2.70;;;;;;;;;;6278799;28;20024;-75
2023/05/07 05:01:11;;;;;;;4.57;3.20;;;;;;;;;;6299389;28;20016;-74
2023/05/07 05:04:12;;;;;;;6.82;3.67;;;;;;;;;;6301776;28;20074;-75
2023/05/07 05:07:13;;;;;;;8.00;4.27;;;;;;;;;;6293870;28;20025;-75
2023/05/07 05:10:13;;;;;;;6.07;3.70;;;;;;;;;;6301143;28;20458;-79
2023/05/07 05:13:13;;;;;;;8.87;3.97;;;;;;;;;;6293333;28;20153;-79
2023/05/07 05:16:13;;;;;;;6.17;3.47;;;;;;;;;;6311447;28;20473;-79
2023/05/07 05:19:14;;;;;;;5.63;3.70;;;;;;;;;;6291774;28;20501;-79
2023/05/07 05:22:15;;;;;;;5.82;3.17;;;;;;;;;;6284911;28;20602;-79
2023/05/07 05:25:15;;;;;;;6.63;3.83;;;;;;;;;;6304883;28;20458;-79
2023/05/07 05:28:15;;;;;;;6.53;3.80;;;;;;;;;;6306887;28;20027;-79
2023/05/07 05:31:16;;;;;;;6.20;2.88;;;;;;;;;;6300570;28;20075;-75
2023/05/07 05:34:17;;;;;;;7.77;4.60;;;;;;;;;;6317287;28;20427;-75
2023/05/07 05:37:17;;;;;;;8.20;5.10;;;;;;;;;;6293793;28;20493;-75
2023/05/07 05:40:17;;;;;;;6.72;4.53;;;;;;;;;;6300818;28;20078;-75
2023/05/07 05:43:18;;;;;;;6.77;3.93;;;;;;;;;;6307654;28;20668;-75
2023/05/07 05:46:19;;;;;;;5.25;3.30;;;;;;;;;;6313151;28;20513;-75
2023/05/07 05:49:19;;;;;;;7.43;4.30;;;;;;;;;;6315709;28;20056;-75
2023/05/07 05:52:19;;;;;;;10.38;4.05;;;;;;;;;;6309976;28;20024;-75
2023/05/07 05:55:20;;;;;;;6.80;3.80;;;;;;;;;;6317388;28;20035;-75
2023/05/07 05:58:20;;;;;;;5.83;3.63;;;;;;;;;;6293795;28;20024;-75
2023/05/07 06:01:20;;;;;;;6.90;4.90;;;;;;;;;;6313308;28;20126;-75
2023/05/07 06:04:21;;;;;;;6.57;3.90;;;;;;;;;;6323709;28;20030;-74
2023/05/07 06:07:21;;;;;;;5.23;3.77;;;;;;;;;;6301715;28;20039;-74
2023/05/07 06:10:21;;;;;;;8.82;4.65;;;;;;;;;;6308366;28;20054;-74
2023/05/07 06:13:22;;;;;;;12.63;6.47;;;;;;;;;;6312244;28;20012;-74
2023/05/07 06:16:22;;;;;;;10.40;6.60;;;;;;;;;;6307846;28;20034;-74
2023/05/07 06:19:23;;;;;;;9.80;6.33;;;;;;;;;;6302817;28;20028;-79
2023/05/07 06:22:24;;;;;;;20.48;12.95;;;;;;;;;;6312221;28;20020;-74
2023/05/07 06:25:24;;;;;;;24.87;17.10;;;;;;;;;;6296878;28;20134;-74
2023/05/07 06:28:24;;;;;;;20.00;13.70;;;;;;;;;;6289746;28;20024;-74
2023/05/07 06:31:29;;;;;;;19.80;13.33;;;;;;;;;;6308338;28;20455;-75
2023/05/07 06:34:31;;;;;;;13.45;8.15;;;;;;;;;;6301862;28;20073;-74
2023/05/07 06:37:31;;;;;;;7.07;5.43;;;;;;;;;;6312801;28;20492;-74
2023/05/07 06:40:31;;;;;;;13.65;8.27;;;;;;;;;;6312848;28;20065;-79
2023/05/07 06:43:31;;;;;;;11.40;5.77;;;;;;;;;;6318061;28;20715;-79
2023/05/07 06:46:32;;;;;;;6.97;4.50;;;;;;;;;;6311695;28;20105;-79
2023/05/07 06:49:33;;;;;;;8.98;5.57;;;;;;;;;;6310708;28;20052;-79
2023/05/07 06:52:33;;;;;;;13.53;4.83;;;;;;;;;;6313252;28;20266;-78
2023/05/07 06:55:33;;;;;;;12.05;5.65;;;;;;;;;;6316438;28;20398;-79
2023/05/07 06:58:34;;;;;;;10.07;6.40;;;;;;;;;;6304514;28;20028;-79
2023/05/07 07:01:34;;;;;;;10.43;6.20;;;;;;;;;;6301550;28;20044;-78
2023/05/07 07:04:34;;;;;;;12.23;6.97;;;;;;;;;;6312241;28;20042;-78
2023/05/07 07:07:34;;;;;;;8.30;5.77;;;;;;;;;;6306751;28;20028;-78
2023/05/07 07:10:35;;;;;;;9.53;5.63;;;;;;;;;;6310172;28;20085;-78
2023/05/07 07:13:35;;;;;;;13.03;8.23;;;;;;;;;;6310150;28;20013;-78
2023/05/07 07:16:35;;;;;;;13.20;5.70;;;;;;;;;;6298118;28;20445;-78
2023/05/07 07:19:35;;;;;;;8.67;5.73;;;;;;;;;;6313295;28;20028;-78
2023/05/07 07:22:36;;;;;;;9.57;4.63;;;;;;;;;;6307744;28;20024;-78
2023/05/07 07:25:36;;;;;;;12.07;7.03;;;;;;;;;;6306848;28;20047;-78
2023/05/07 07:28:46;;;;;;;5.97;3.25;;;;;;;;;;6308170;28;20107;-77
2023/05/07 07:31:47;;;;;;;6.95;4.07;;;;;;;;;;6310788;28;20032;-74
2023/05/07 07:34:48;;;;;;;7.32;4.00;;;;;;;;;;6304324;28;20023;-74
2023/05/07 07:37:50;;;;;;;7.63;3.70;;;;;;;;;;6307415;28;20020;-74
2023/05/07 07:40:50;;;;;;;;;;;;;;;;;;6311877;28;20025;-74
2023/05/07 07:43:50;;;;;;;7.80;4.10;;;;;;;;;;6304316;28;19944;-74
2023/05/07 07:46:50;;;;;;;13.07;5.70;;;;;;;;;;6288624;28;20031;-74
2023/05/07 07:49:50;;;;;;;5.60;3.70;;;;;;;;;;6302469;28;20046;-74
2023/05/07 07:52:51;;;;;;;7.10;3.63;;;;;;;;;;6306566;28;20018;-74
2023/05/07 07:55:51;;;;;;;10.80;7.07;;;;;;;;;;6297819;28;20020;-74
2023/05/07 07:58:51;;;;;;;8.47;5.27;;;;;;;;;;6278455;28;20119;-74
2023/05/07 08:01:53;;;;;;;6.78;4.70;;;;;;;;;;6305940;28;20032;-74
2023/05/07 08:04:53;;;;;;;12.43;6.18;;;;;;;;;;6294600;28;20146;-74
2023/05/07 08:07:54;;;;;;;8.02;4.38;;;;;;;;;;6298332;28;20056;-74
2023/05/07 08:10:54;;;;;;;7.77;4.60;;;;;;;;;;6317681;28;20458;-74
2023/05/07 08:13:54;;;;;;;7.60;4.87;;;;;;;;;;6304000;28;20016;-74
2023/05/07 08:16:55;;;;;;;6.20;3.77;;;;;;;;;;6306091;28;20065;-74
2023/05/07 08:19:55;;;;;;;7.10;5.20;;;;;;;;;;6293012;28;20020;-74
2023/05/07 08:22:55;;;;;;;8.43;4.63;;;;;;;;;;6308923;28;20031;-74
2023/05/07 08:25:55;;;;;;;7.90;4.90;;;;;;;;;;6310573;28;20031;-74
2023/05/07 08:28:55;;;;;;;6.37;4.07;;;;;;;;;;6284665;28;20036;-74
2023/05/07 08:31:56;;;;;;;7.55;4.35;;;;;;;;;;6313916;28;20085;-74
2023/05/07 08:34:56;;;;;;;6.73;4.20;;;;;;;;;;6297362;28;20469;-74
2023/05/07 08:37:56;;;;;;;10.90;6.67;;;;;;;;;;6300835;28;20019;-74
2023/05/07 08:40:56;;;;;;;11.83;5.70;;;;;;;;;;6300642;28;20027;-74
2023/05/07 08:43:58;;;;;;;12.67;7.20;;;;;;;;;;6301095;28;20021;-74
2023/05/07 08:46:58;;;;;;;13.10;8.48;;;;;;;;;;6299473;28;20020;-74
2023/05/07 08:49:59;;;;;;;8.43;4.83;;;;;;;;;;6310496;28;20048;-75
2023/05/07 08:53:00;;;;;;;8.97;5.20;;;;;;;;;;6284382;28;20056;-74
2023/05/07 08:56:00;;;;;;;9.30;5.27;;;;;;;;;;6305386;28;20458;-74
2023/05/07 08:59:00;;;;;;;12.97;7.43;;;;;;;;;;6296858;28;20059;-74
2023/05/07 09:02:00;;;;;;;9.50;6.67;;;;;;;;;;6307298;28;20074;-78
2023/05/07 09:05:00;;;;;;;8.57;6.10;;;;;;;;;;6304452;28;20477;-78
2023/05/07 09:08:05;;;;;;;10.67;6.70;;;;;;;;;;6303941;28;20027;-78
2023/05/07 09:11:05;;;;;;;12.23;5.13;;;;;;;;;;6299919;28;20067;-79
2023/05/07 09:14:06;;;;;;;9.00;5.70;;;;;;;;;;6308286;28;20025;-79
2023/05/07 09:17:06;;;;;;;9.10;5.13;;;;;;;;;;6298456;28;20458;-79
2023/05/07 09:20:06;;;;;;;7.10;5.20;;;;;;;;;;6317650;28;20028;-79
2023/05/07 09:23:07;;;;;;;8.53;5.20;;;;;;;;;;6293913;28;20024;-78
2023/05/07 09:26:14;;;;;;;6.63;4.50;;;;;;;;;;6294168;28;20446;-79
2023/05/07 09:29:15;;;;;;;7.13;4.70;;;;;;;;;;6279692;28;20540;-79
2023/05/07 09:32:15;;;;;;;7.35;4.30;;;;;;;;;;6311589;28;20030;-79
2023/05/07 09:35:17;;;;;;;9.07;4.97;;;;;;;;;;6317663;28;20016;-79
2023/05/07 09:38:19;;;;;;;6.73;5.17;;;;;;;;;;6304173;28;20013;-79
2023/05/07 09:41:19;;;;;;;14.15;8.77;;;;;;;;;;6311146;28;20020;-79
2023/05/07 09:44:20;;;;;;;12.23;6.63;;;;;;;;;;6300077;28;20023;-79
2023/05/07 09:47:23;;;;;;;11.00;6.63;;;;;;;;;;6310679;28;20024;-79
2023/05/07 09:50:27;;;;;;;8.23;5.38;;;;;;;;;;6295268;28;20497;-74
2023/05/07 09:53:31;;;;;;;12.18;6.72;;;;;;;;;;6312221;28;20009;-75
2023/05/07 09:56:31;;;;;;;11.90;6.22;;;;;;;;;;6308425;28;20057;-75
2023/05/07 09:59:32;;;;;;;10.37;5.70;;;;;;;;;;6310387;28;20360;-75
2023/05/07 10:02:33;;;;;;;13.43;7.13;;;;;;;;;;6283143;28;20065;-75
2023/05/07 10:05:33;;;;;;;16.23;8.40;;;;;;;;;;6303916;28;20012;-74
2023/05/07 10:08:35;;;;;;;10.03;6.63;;;;;;;;;;6310827;28;20027;-75
2023/05/07 10:11:36;;;;;;;7.68;6.68;;;;;;;;;;6302959;28;20442;-79
2023/05/07 10:14:38;;;;;;;10.45;8.07;;;;;;;;;;6311633;28;20008;-80
2023/05/07 10:17:39;;;;;;;9.02;5.47;;;;;;;;;;6297053;28;20103;-79
2023/05/07 10:20:40;;;;;;;10.13;5.70;;;;;;;;;;6300075;28;20478;-79
2023/05/07 10:23:42;;;;;;;10.32;6.03;;;;;;;;;;6296146;28;20020;-79
2023/05/07 10:26:42;;;;;;;;;;;;;;;;;;6284690;28;20020;-79
2023/05/07 10:29:51;;;;;;;10.85;5.18;;;;;;;;;;6312675;28;19999;-79
2023/05/07 10:32:54;;;;;;;10.73;6.38;;;;;;;;;;6282979;28;20020;-79
2023/05/07 10:35:57;;;;;;;13.88;7.85;;;;;;;;;;6307099;28;20097;-79
2023/05/07 10:38:57;;;;;;;9.05;6.47;;;;;;;;;;6306791;28;20044;-79
2023/05/07 10:42:07;;;;;;;12.77;7.60;;;;;;;;;;6308060;28;20034;-80
2023/05/07 10:45:17;;;;;;;13.98;8.45;;;;;;;;;;6304974;28;20016;-79
2023/05/07 10:48:17;;;;;;;32.72;20.15;;;;;;;;;;6298841;28;20163;-80
2023/05/07 10:51:19;;;;;;;13.17;9.20;;;;;;;;;;6299404;28;20081;-79
2023/05/07 10:54:20;;;;;;;13.20;10.05;;;;;;;;;;6296385;28;20062;-80
2023/05/07 10:57:35;;;;;;;19.73;13.73;;;;;;;;;;6308725;28;20012;-79
2023/05/07 11:00:35;;;;;;;16.13;10.63;;;;;;;;;;6299118;28;20023;-81
2023/05/07 11:03:35;;;;;;;13.82;9.85;;;;;;;;;;6312549;28;20015;-80
2023/05/07 11:06:35;;;;;;;15.03;8.80;;;;;;;;;;6305048;28;20111;-80
2023/05/07 11:09:51;;;;;;;15.87;12.10;;;;;;;;;;6305932;28;20025;-79
2023/05/07 11:12:52;;;;;;;10.23;6.60;;;;;;;;;;6301092;28;20116;-80
2023/05/07 11:15:52;;;;;;;6.97;4.70;;;;;;;;;;6313403;28;20012;-79
2023/05/07 11:18:54;;;;;;;11.60;7.30;;;;;;;;;;6316293;28;20016;-79
2023/05/07 11:21:54;;;;;;;8.15;5.10;;;;;;;;;;6301245;28;20025;-75
2023/05/07 11:24:55;;;;;;;8.07;4.45;;;;;;;;;;6312613;28;20071;-75
2023/05/07 11:27:57;;;;;;;9.10;5.70;;;;;;;;;;6311715;28;20020;-75
2023/05/07 11:30:59;;;;;;;10.60;5.97;;;;;;;;;;6301377;28;20013;-75
2023/05/07 11:34:00;;;;;;;9.43;5.67;;;;;;;;;;6298672;28;20155;-75
2023/05/07 11:37:00;;;;;;;8.93;5.33;;;;;;;;;;6305214;28;20020;-75
2023/05/07 11:40:07;;;;;;;10.23;5.03;;;;;;;;;;6296364;28;20150;-75
2023/05/07 11:43:11;;;;;;;15.00;9.63;;;;;;;;;;6279651;28;20366;-76
2023/05/07 11:46:14;;;;;;;13.60;6.97;;;;;;;;;;6298042;28;20024;-73
2023/05/07 11:49:16;;;;;;;9.05;5.07;;;;;;;;;;6301038;28;20039;-76
2023/05/07 11:52:17;;;;;;;10.60;5.90;;;;;;;;;;6305422;28;20071;-75
2023/05/07 11:55:17;;;;;;;;;;;;;;;;;;6317167;28;20068;-75
2023/05/07 11:58:21;;;;;;;4.93;3.78;;;;;;;;;;6300439;28;19908;-75
2023/05/07 12:01:21;;;;;;;7.03;4.50;;;;;;;;;;6307673;28;20028;-74
2023/05/07 12:04:21;;;;;;;7.80;4.20;;;;;;;;;;6303203;28;20024;-75
2023/05/07 12:07:24;;;;;;;6.53;4.23;;;;;;;;;;6299499;28;20044;-75
2023/05/07 12:10:25;;;;;;;8.43;4.53;;;;;;;;;;6303718;28;20398;-78
2023/05/07 12:13:26;;;;;;;12.43;7.27;;;;;;;;;;6305117;28;20027;-80
2023/05/07 12:16:26;;;;;;;9.83;5.20;;;;;;;;;;6316692;28;20008;-80
2023/05/07 12:19:27;;;;;;;12.77;7.07;;;;;;;;;;6309903;28;20016;-80
2023/05/07 12:22:27;;;;;;;13.43;7.33;;;;;;;;;;6305725;28;20501;-80
2023/05/07 12:25:31;;;;;;;7.67;5.70;;;;;;;;;;6310677;28;20024;-80
2023/05/07 12:28:36;;;;;;;12.48;7.72;;;;;;;;;;6294384;28;20400;-80
2023/05/07 12:31:41;;;;;;;11.75;6.40;;;;;;;;;;6308892;28;20027;-79
2023/05/07 12:34:42;;;;;;;11.50;7.57;;;;;;;;;;6298516;28;20026;-80
2023/05/07 12:37:42;;;;;;;13.10;7.73;;;;;;;;;;6305392;28;20017;-79
2023/05/07 12:40:47;;;;;;;9.80;5.47;;;;;;;;;;6297076;28;20391;-80
2023/05/07 12:43:47;;;;;;;6.53;4.35;;;;;;;;;;6305572;28;20376;-81
2023/05/07 12:46:47;;;;;;;7.80;4.73;;;;;;;;;;6297885;28;20048;-80
2023/05/07 12:49:48;;;;;;;7.43;4.67;;;;;;;;;;6301063;28;20169;-79
2023/05/07 12:52:49;;;;;;;7.90;4.37;;;;;;;;;;6302079;28;20378;-80
2023/05/07 12:55:51;;;;;;;6.63;3.88;;;;;;;;;;6288859;28;20134;-80
2023/05/07 12:58:56;;;;;;;8.90;4.60;;;;;;;;;;6305578;28;20024;-80
2023/05/07 13:01:57;;;;;;;10.15;4.80;;;;;;;;;;6310318;28;20024;-80
2023/05/07 13:04:57;;;;;;;8.45;4.95;;;;;;;;;;6305964;28;20476;-80
2023/05/07 13:07:57;;;;;;;6.90;4.30;;;;;;;;;;6296513;28;20078;-80
2023/05/07 13:10:59;;;;;;;10.57;5.63;;;;;;;;;;6273781;28;20128;-80
2023/05/07 13:14:00;;;;;;;8.55;4.50;;;;;;;;;;6314844;28;20020;-80
2023/05/07 13:17:00;;;;;;;8.20;4.53;;;;;;;;;;6312914;28;20035;-80
2023/05/07 13:20:00;;;;;;;6.23;3.47;;;;;;;;;;6311604;28;20016;-75
2023/05/07 13:23:01;;;;;;;9.17;4.50;;;;;;;;;;6306829;28;20021;-76
2023/05/07 13:26:02;;;;;;;7.82;3.40;;;;;;;;;;6309270;28;20027;-76
2023/05/07 13:29:02;;;;;;;8.38;3.78;;;;;;;;;;6303044;28;20028;-75
2023/05/07 13:32:02;;;;;;;9.90;5.35;;;;;;;;;;6289144;28;20114;-75
2023/05/07 13:35:03;;;;;;;9.20;5.20;;;;;;;;;;6308378;28;20078;-75
2023/05/07 13:38:03;;;;;;;7.53;4.33;;;;;;;;;;6291618;28;20035;-76
2023/05/07 13:41:04;;;;;;;8.13;5.23;;;;;;;;;;6297741;28;20535;-76
2023/05/07 13:44:04;;;;;;;11.00;6.93;;;;;;;;;;6296847;28;20013;-74
2023/05/07 13:47:04;;;;;;;8.67;4.97;;;;;;;;;;6305989;28;20027;-75
2023/05/07 13:50:05;;;;;;;12.50;6.17;;;;;;;;;;6307874;28;20052;-76
2023/05/07 13:53:07;;;;;;;11.20;6.37;;;;;;;;;;6333490;28;20058;-74
2023/05/07 13:56:07;;;;;;;7.10;4.45;;;;;;;;;;6331037;28;20024;-75
2023/05/07 13:59:08;;;;;;;9.07;5.00;;;;;;;;;;6327857;28;20706;-75
2023/05/07 14:02:08;;;;;;;8.57;4.30;;;;;;;;;;6318119;28;20052;-75
2023/05/07 14:05:10;;;;;;;8.43;4.33;;;;;;;;;;6340124;28;20035;-75
2023/05/07 14:08:10;;;;;;;5.90;3.70;;;;;;;;;;6342298;27;20020;-75
2023/05/07 14:11:13;;;;;;;6.90;4.40;;;;;;;;;;6310194;28;20453;-75
2023/05/07 14:14:13;;;;;;;8.20;4.03;;;;;;;;;;6329229;28;20548;-75
2023/05/07 14:17:14;;;;;;;11.73;7.03;;;;;;;;;;6325147;28;20020;-75
2023/05/07 14:20:14;;;;;;;6.38;3.90;;;;;;;;;;6308350;28;20093;-75
2023/05/07 14:23:16;;;;;;;10.03;5.30;;;;;;;;;;6334214;28;20106;-75
2023/05/07 14:26:17;;;;;;;14.18;7.30;;;;;;;;;;6315535;28;20016;-75
2023/05/07 14:29:18;;;;;;;11.47;5.90;;;;;;;;;;6338673;28;20032;-75
2023/05/07 14:32:19;;;;;;;10.52;6.40;;;;;;;;;;6337064;28;20028;-81
2023/05/07 14:35:19;;;;;;;12.33;7.30;;;;;;;;;;6319479;28;20085;-79
2023/05/07 14:38:19;;;;;;;14.50;8.60;;;;;;;;;;6349491;27;20022;-79
2023/05/07 14:41:20;;;;;;;13.23;6.70;;;;;;;;;;6351671;28;20024;-81
2023/05/07 14:44:21;;;;;;;10.20;5.47;;;;;;;;;;6326041;28;20024;-80
2023/05/07 14:47:21;;;;;;;10.97;5.73;;;;;;;;;;6343411;28;20072;-80
2023/05/07 14:50:21;;;;;;;9.70;6.85;;;;;;;;;;6316779;28;20039;-75
2023/05/07 14:53:21;;;;;;;10.77;6.97;;;;;;;;;;6310754;28;20028;-75
2023/05/07 14:56:22;;;;;;;14.07;7.77;;;;;;;;;;6310094;28;20035;-75
2023/05/07 14:59:24;;;;;;;15.03;8.40;;;;;;;;;;6313917;28;20028;-75
2023/05/07 15:02:25;;;;;;;14.13;9.05;;;;;;;;;;6312325;28;20008;-75
2023/05/07 15:05:25;;;;;;;12.87;8.90;;;;;;;;;;6311630;28;20019;-75
2023/05/07 15:08:25;;;;;;;16.20;8.90;;;;;;;;;;6313741;28;20409;-75
2023/05/07 15:11:25;;;;;;;11.43;7.50;;;;;;;;;;6311405;28;20069;-75
2023/05/07 15:14:26;;;;;;;10.90;6.37;;;;;;;;;;6304610;28;20040;-75
2023/05/07 15:17:27;;;;;;;13.10;5.87;;;;;;;;;;6306163;28;20390;-76
2023/05/07 15:20:27;;;;;;;9.15;5.43;;;;;;;;;;6311980;28;20540;-76
2023/05/07 15:23:28;;;;;;;9.27;5.67;;;;;;;;;;6315420;28;20102;-76
2023/05/07 15:26:29;;;;;;;9.33;6.30;;;;;;;;;;6313560;28;20024;-75
2023/05/07 15:29:29;;;;;;;8.87;5.00;;;;;;;;;;6297746;28;20551;-76
2023/05/07 15:32:29;;;;;;;11.77;7.22;;;;;;;;;;6315421;28;20024;-76
2023/05/07 15:35:30;;;;;;;10.63;6.70;;;;;;;;;;6300218;28;20008;-76
2023/05/07 15:38:30;;;;;;;10.93;6.53;;;;;;;;;;6307520;28;20444;-76
2023/05/07 15:41:30;;;;;;;11.67;6.47;;;;;;;;;;6284873;28;20016;-76
2023/05/07 15:44:31;;;;;;;11.87;7.43;;;;;;;;;;6323113;28;20524;-76
2023/05/07 15:47:32;;;;;;;12.13;6.97;;;;;;;;;;6299019;28;20012;-76
2023/05/07 15:50:33;;;;;;;11.27;6.87;;;;;;;;;;6320435;28;20092;-76
2023/05/07 15:53:34;;;;;;;10.00;6.85;;;;;;;;;;6338218;28;20478;-76
2023/05/07 15:56:34;;;;;;;9.57;7.13;;;;;;;;;;6329165;28;20023;-76
2023/05/07 15:59:35;;;;;;;11.33;6.87;;;;;;;;;;6321342;28;20485;-76
2023/05/07 16:02:36;;;;;;;10.63;6.80;;;;;;;;;;6333526;28;20478;-75
2023/05/07 16:05:36;;;;;;;10.73;7.57;;;;;;;;;;6330328;28;20024;-76
2023/05/07 16:08:39;;;;;;;11.83;7.27;;;;;;;;;;6334913;27;20022;-75
2023/05/07 16:11:39;;;;;;;12.05;6.85;;;;;;;;;;6316976;28;20119;-75
2023/05/07 16:14:39;;;;;;;15.00;7.30;;;;;;;;;;6333016;28;20035;-75
2023/05/07 16:17:40;;;;;;;13.77;8.13;;;;;;;;;;6332456;28;20042;-76
2023/05/07 16:20:40;;;;;;;13.17;7.40;;;;;;;;;;6314322;28;20096;-75
2023/05/07 16:23:40;;;;;;;14.07;7.40;;;;;;;;;;6331997;28;20020;-76
2023/05/07 16:26:41;;;;;;;12.37;8.73;;;;;;;;;;6330370;28;20035;-75
2023/05/07 16:29:41;;;;;;;14.38;8.90;;;;;;;;;;6308879;28;20015;-76
2023/05/07 16:32:41;;;;;;;13.33;8.43;;;;;;;;;;6335039;28;20440;-76
2023/05/07 16:35:46;;;;;;;11.30;8.27;;;;;;;;;;6337157;28;20015;-75
2023/05/07 16:38:46;;;;;;;11.55;7.95;;;;;;;;;;6333667;27;20073;-75
2023/05/07 16:41:49;;;;;;;13.23;6.97;;;;;;;;;;6335267;28;20034;-75
2023/05/07 16:44:49;;;;;;;14.07;8.02;;;;;;;;;;6329381;28;20488;-75
2023/05/07 16:47:50;;;;;;;14.43;8.00;;;;;;;;;;6337173;28;20043;-76
2023/05/07 16:50:50;;;;;;;11.87;7.33;;;;;;;;;;6336556;28;20019;-75
2023/05/07 16:53:53;;;;;;;14.50;9.52;;;;;;;;;;6326189;28;20421;-75
2023/05/07 16:56:53;;;;;;;12.85;8.43;;;;;;;;;;6321691;28;20394;-75
2023/05/07 16:59:57;;;;;;;13.07;8.40;;;;;;;;;;6335340;28;20075;-75
2023/05/07 17:02:58;;;;;;;10.77;7.55;;;;;;;;;;6336713;28;20457;-76
2023/05/07 17:05:58;;;;;;;11.97;7.83;;;;;;;;;;6317068;28;20048;-75
2023/05/07 17:08:58;;;;;;;14.70;7.53;;;;;;;;;;6327552;28;20035;-75
2023/05/07 17:11:58;;;;;;;13.73;7.27;;;;;;;;;;6330572;28;20447;-75
2023/05/07 17:14:59;;;;;;;14.33;8.13;;;;;;;;;;6316941;28;20032;-75
2023/05/07 17:17:59;;;;;;;10.43;7.10;;;;;;;;;;6338674;28;20030;-76
2023/05/07 17:20:59;;;;;;;11.87;7.47;;;;;;;;;;6317594;28;20028;-76
2023/05/07 17:23:59;;;;;;;11.23;6.33;;;;;;;;;;6330988;28;20020;-75
2023/05/07 17:27:00;;;;;;;8.87;6.20;;;;;;;;;;6332784;28;20489;-76
2023/05/07 17:30:00;;;;;;;9.13;5.85;;;;;;;;;;6320589;28;20039;-75
2023/05/07 17:33:01;;;;;;;12.70;7.87;;;;;;;;;;6329270;28;20089;-76
2023/05/07 17:36:02;;;;;;;13.93;7.60;;;;;;;;;;6334510;27;20505;-75
2023/05/07 17:39:02;;;;;;;11.00;7.40;;;;;;;;;;6333729;28;20015;-75
2023/05/07 17:42:04;;;;;;;9.60;6.63;;;;;;;;;;6338703;28;20034;-75
2023/05/07 17:45:04;;;;;;;14.73;8.65;;;;;;;;;;6334424;28;20131;-75
2023/05/07 17:48:04;;;;;;;13.33;7.53;;;;;;;;;;6335710;28;20509;-75
2023/05/07 17:51:06;;;;;;;12.87;6.93;;;;;;;;;;6331468;28;20051;-75
2023/05/07 17:54:06;;;;;;;11.07;6.63;;;;;;;;;;6350155;27;20026;-75